sensor_id;sensor_type;location;lat;lon;timestamp;temperature;humidity
45983;DHT22;31711;47.158;7.346;2023-09-19T00:01:43;16.70;99.90
45983;DHT22;31711;47.158;7.346;2023-09-19T00:04:12;16.60;99.90
45983;DHT22;31711;47.158;7.346;2023-09-19T00:06:41;16.60;99.90
45983;DHT22;31711;47.158;7.346;2023-09-19T00:09:08;16.70;99.90
45983;DHT22;31711;47.158;7.346;2023-09-19T00:11:37;16.70;99.90
45983;DHT22;31711;47.158;7.346;2023-09-19T00:14:04;16.60;99.90
45983;DHT22;31711;47.158;7.346;2023-09-19T00:16:34;16.60;99.90
45983;DHT22;31711;47.158;7.346;2023-09-19T00:19:01;16.60;99.90
45983;DHT22;31711;47.158;7.346;2023-09-19T00:21:27;16.60;99.90
45983;DHT22;31711;47.158;7.346;2023-09-19T00:23:54;16.60;99.90
45983;DHT22;31711;47.158;7.346;2023-09-19T00:26:21;16.70;99.90
45983;DHT22;31711;47.158;7.346;2023-09-19T00:28:46;16.60;99.90
45983;DHT22;31711;47.158;7.346;2023-09-19T00:31:12;16.70;99.90
45983;DHT22;31711;47.158;7.346;2023-09-19T00:33:38;16.60;99.90
45983;DHT22;31711;47.158;7.346;2023-09-19T00:36:05;16.60;99.90
45983;DHT22;31711;47.158;7.346;2023-09-19T00:38:31;16.60;99.90
45983;DHT22;31711;47.158;7.346;2023-09-19T00:40:57;16.60;99.90
45983;DHT22;31711;47.158;7.346;2023-09-19T00:43:25;16.50;99.90
45983;DHT22;31711;47.158;7.346;2023-09-19T00:45:54;16.50;99.90
45983;DHT22;31711;47.158;7.346;2023-09-19T00:48:22;16.60;99.90
45983;DHT22;31711;47.158;7.346;2023-09-19T00:50:49;16.60;99.90
45983;DHT22;31711;47.158;7.346;2023-09-19T00:53:20;16.50;99.90
45983;DHT22;31711;47.158;7.346;2023-09-19T00:55:47;16.50;99.90
45983;DHT22;31711;47.158;7.346;2023-09-19T00:58:14;16.40;99.90
45983;DHT22;31711;47.158;7.346;2023-09-19T01:00:41;16.50;99.90
45983;DHT22;31711;47.158;7.346;2023-09-19T01:03:10;16.40;99.90
45983;DHT22;31711;47.158;7.346;2023-09-19T01:05:39;16.40;99.90
45983;DHT22;31711;47.158;7.346;2023-09-19T01:08:05;16.40;99.90
45983;DHT22;31711;47.158;7.346;2023-09-19T01:10:33;16.40;99.90
45983;DHT22;31711;47.158;7.346;2023-09-19T01:25:59;16.30;99.90
45983;DHT22;31711;47.158;7.346;2023-09-19T01:31:07;16.40;99.90
45983;DHT22;31711;47.158;7.346;2023-09-19T01:33:54;16.40;99.90
45983;DHT22;31711;47.158;7.346;2023-09-19T01:36:29;16.40;99.90
45983;DHT22;31711;47.158;7.346;2023-09-19T01:38:57;16.30;99.90
45983;DHT22;31711;47.158;7.346;2023-09-19T01:41:45;16.20;99.90
45983;DHT22;31711;47.158;7.346;2023-09-19T01:47:17;16.20;99.90
45983;DHT22;31711;47.158;7.346;2023-09-19T01:49:55;16.20;99.90
45983;DHT22;31711;47.158;7.346;2023-09-19T01:52:22;16.40;99.90
45983;DHT22;31711;47.158;7.346;2023-09-19T01:54:51;16.40;99.90
45983;DHT22;31711;47.158;7.346;2023-09-19T01:57:31;16.30;99.90
45983;DHT22;31711;47.158;7.346;2023-09-19T02:00:05;16.30;99.90
45983;DHT22;31711;47.158;7.346;2023-09-19T02:02:39;16.30;99.90
45983;DHT22;31711;47.158;7.346;2023-09-19T02:05:06;16.30;99.90
45983;DHT22;31711;47.158;7.346;2023-09-19T02:07:32;16.20;99.90
45983;DHT22;31711;47.158;7.346;2023-09-19T02:09:58;16.30;99.90
45983;DHT22;31711;47.158;7.346;2023-09-19T02:12:26;16.30;99.90
45983;DHT22;31711;47.158;7.346;2023-09-19T02:14:53;16.30;99.90
45983;DHT22;31711;47.158;7.346;2023-09-19T02:17:19;16.30;99.90
45983;DHT22;31711;47.158;7.346;2023-09-19T02:19:45;16.30;99.90
45983;DHT22;31711;47.158;7.346;2023-09-19T02:22:11;16.40;99.90
45983;DHT22;31711;47.158;7.346;2023-09-19T02:24:37;16.40;99.90
45983;DHT22;31711;47.158;7.346;2023-09-19T02:27:04;16.40;99.90
45983;DHT22;31711;47.158;7.346;2023-09-19T02:29:31;16.50;99.90
45983;DHT22;31711;47.158;7.346;2023-09-19T02:31:57;16.50;99.90
45983;DHT22;31711;47.158;7.346;2023-09-19T02:34:23;16.50;99.90
45983;DHT22;31711;47.158;7.346;2023-09-19T02:36:51;16.50;99.90
45983;DHT22;31711;47.158;7.346;2023-09-19T02:39:19;16.50;99.90
45983;DHT22;31711;47.158;7.346;2023-09-19T02:41:45;16.50;99.90
45983;DHT22;31711;47.158;7.346;2023-09-19T02:44:12;16.40;99.90
45983;DHT22;31711;47.158;7.346;2023-09-19T02:46:38;16.40;99.90
45983;DHT22;31711;47.158;7.346;2023-09-19T02:49:04;16.30;99.90
45983;DHT22;31711;47.158;7.346;2023-09-19T02:51:33;16.40;99.90
45983;DHT22;31711;47.158;7.346;2023-09-19T02:54:00;16.40;99.90
45983;DHT22;31711;47.158;7.346;2023-09-19T02:56:26;16.40;99.90
45983;DHT22;31711;47.158;7.346;2023-09-19T02:58:52;16.40;99.90
45983;DHT22;31711;47.158;7.346;2023-09-19T03:01:18;16.30;99.90
45983;DHT22;31711;47.158;7.346;2023-09-19T03:03:45;16.30;99.90
45983;DHT22;31711;47.158;7.346;2023-09-19T03:06:11;16.30;99.90
45983;DHT22;31711;47.158;7.346;2023-09-19T03:08:39;16.30;99.90
45983;DHT22;31711;47.158;7.346;2023-09-19T03:11:06;16.20;99.90
45983;DHT22;31711;47.158;7.346;2023-09-19T03:13:34;16.10;99.90
45983;DHT22;31711;47.158;7.346;2023-09-19T03:16:02;16.20;99.90
45983;DHT22;31711;47.158;7.346;2023-09-19T03:18:31;16.20;99.90
45983;DHT22;31711;47.158;7.346;2023-09-19T03:20:58;16.30;99.90
45983;DHT22;31711;47.158;7.346;2023-09-19T03:23:27;16.30;99.90
45983;DHT22;31711;47.158;7.346;2023-09-19T03:25:54;16.30;99.90
45983;DHT22;31711;47.158;7.346;2023-09-19T03:28:22;16.30;99.90
45983;DHT22;31711;47.158;7.346;2023-09-19T03:31:05;16.30;99.90
45983;DHT22;31711;47.158;7.346;2023-09-19T03:33:32;16.30;99.90
45983;DHT22;31711;47.158;7.346;2023-09-19T03:35:59;16.30;99.90
45983;DHT22;31711;47.158;7.346;2023-09-19T03:38:26;16.30;99.90
45983;DHT22;31711;47.158;7.346;2023-09-19T03:40:53;16.20;99.90
45983;DHT22;31711;47.158;7.346;2023-09-19T03:43:19;16.20;99.90
45983;DHT22;31711;47.158;7.346;2023-09-19T03:45:45;16.20;99.90
45983;DHT22;31711;47.158;7.346;2023-09-19T03:48:12;16.20;99.90
45983;DHT22;31711;47.158;7.346;2023-09-19T03:50:39;16.10;99.90
45983;DHT22;31711;47.158;7.346;2023-09-19T03:53:05;16.10;99.90
45983;DHT22;31711;47.158;7.346;2023-09-19T03:55:33;16.10;99.90
45983;DHT22;31711;47.158;7.346;2023-09-19T03:58:04;16.20;99.90
45983;DHT22;31711;47.158;7.346;2023-09-19T04:00:31;16.30;99.90
45983;DHT22;31711;47.158;7.346;2023-09-19T04:02:56;16.30;99.90
45983;DHT22;31711;47.158;7.346;2023-09-19T04:05:23;16.40;99.90
45983;DHT22;31711;47.158;7.346;2023-09-19T04:07:50;16.30;99.90
45983;DHT22;31711;47.158;7.346;2023-09-19T04:10:16;16.30;99.90
45983;DHT22;31711;47.158;7.346;2023-09-19T04:12:52;16.30;99.90
45983;DHT22;31711;47.158;7.346;2023-09-19T04:15:19;16.40;99.90
45983;DHT22;31711;47.158;7.346;2023-09-19T04:17:45;16.30;99.90
45983;DHT22;31711;47.158;7.346;2023-09-19T04:20:11;16.30;99.90
45983;DHT22;31711;47.158;7.346;2023-09-19T04:22:40;16.40;99.90
45983;DHT22;31711;47.158;7.346;2023-09-19T04:25:06;16.50;99.90
45983;DHT22;31711;47.158;7.346;2023-09-19T04:27:33;16.40;99.90
45983;DHT22;31711;47.158;7.346;2023-09-19T04:29:59;16.40;99.90
45983;DHT22;31711;47.158;7.346;2023-09-19T04:32:29;16.40;99.90
45983;DHT22;31711;47.158;7.346;2023-09-19T04:34:55;16.40;99.90
45983;DHT22;31711;47.158;7.346;2023-09-19T04:37:26;16.50;99.90
45983;DHT22;31711;47.158;7.346;2023-09-19T04:39:52;16.50;99.90
45983;DHT22;31711;47.158;7.346;2023-09-19T04:42:18;16.50;99.90
45983;DHT22;31711;47.158;7.346;2023-09-19T04:44:44;16.60;99.90
45983;DHT22;31711;47.158;7.346;2023-09-19T04:47:10;16.60;99.90
45983;DHT22;31711;47.158;7.346;2023-09-19T04:49:37;16.50;99.90
45983;DHT22;31711;47.158;7.346;2023-09-19T04:52:05;16.50;99.90
45983;DHT22;31711;47.158;7.346;2023-09-19T04:54:32;16.60;99.90
45983;DHT22;31711;47.158;7.346;2023-09-19T04:56:59;16.60;99.90
45983;DHT22;31711;47.158;7.346;2023-09-19T04:59:26;16.50;99.90
45983;DHT22;31711;47.158;7.346;2023-09-19T05:01:54;16.50;99.90
45983;DHT22;31711;47.158;7.346;2023-09-19T05:04:20;16.50;99.90
45983;DHT22;31711;47.158;7.346;2023-09-19T05:06:45;16.50;99.90
45983;DHT22;31711;47.158;7.346;2023-09-19T05:09:11;16.50;99.90
45983;DHT22;31711;47.158;7.346;2023-09-19T05:11:37;16.60;99.90
45983;DHT22;31711;47.158;7.346;2023-09-19T05:14:04;16.50;99.90
45983;DHT22;31711;47.158;7.346;2023-09-19T05:16:30;16.50;99.90
45983;DHT22;31711;47.158;7.346;2023-09-19T05:18:59;16.40;99.90
45983;DHT22;31711;47.158;7.346;2023-09-19T05:21:26;16.40;99.90
45983;DHT22;31711;47.158;7.346;2023-09-19T05:23:54;16.30;99.90
45983;DHT22;31711;47.158;7.346;2023-09-19T05:26:21;16.40;99.90
45983;DHT22;31711;47.158;7.346;2023-09-19T05:28:47;16.30;99.90
45983;DHT22;31711;47.158;7.346;2023-09-19T05:31:16;16.40;99.90
45983;DHT22;31711;47.158;7.346;2023-09-19T05:33:42;16.40;99.90
45983;DHT22;31711;47.158;7.346;2023-09-19T05:36:08;16.30;99.90
45983;DHT22;31711;47.158;7.346;2023-09-19T05:38:38;16.30;99.90
45983;DHT22;31711;47.158;7.346;2023-09-19T05:41:06;16.20;99.90
45983;DHT22;31711;47.158;7.346;2023-09-19T05:43:33;16.20;99.90
45983;DHT22;31711;47.158;7.346;2023-09-19T05:46:00;16.10;99.90
45983;DHT22;31711;47.158;7.346;2023-09-19T05:48:26;16.10;99.90
45983;DHT22;31711;47.158;7.346;2023-09-19T05:50:53;16.20;99.90
45983;DHT22;31711;47.158;7.346;2023-09-19T05:53:19;16.30;99.90
45983;DHT22;31711;47.158;7.346;2023-09-19T05:55:45;16.30;99.90
45983;DHT22;31711;47.158;7.346;2023-09-19T05:58:11;16.40;99.90
45983;DHT22;31711;47.158;7.346;2023-09-19T06:00:39;16.40;99.90
45983;DHT22;31711;47.158;7.346;2023-09-19T06:03:07;16.30;99.90
45983;DHT22;31711;47.158;7.346;2023-09-19T06:05:33;16.30;99.90
45983;DHT22;31711;47.158;7.346;2023-09-19T06:07:59;16.30;99.90
45983;DHT22;31711;47.158;7.346;2023-09-19T06:10:26;16.30;99.90
45983;DHT22;31711;47.158;7.346;2023-09-19T06:12:54;16.40;99.90
45983;DHT22;31711;47.158;7.346;2023-09-19T06:15:21;16.40;99.90
45983;DHT22;31711;47.158;7.346;2023-09-19T06:17:55;16.50;99.90
45983;DHT22;31711;47.158;7.346;2023-09-19T06:20:22;16.40;99.90
45983;DHT22;31711;47.158;7.346;2023-09-19T06:22:49;16.40;99.90
45983;DHT22;31711;47.158;7.346;2023-09-19T06:25:16;16.50;99.90
45983;DHT22;31711;47.158;7.346;2023-09-19T06:27:49;16.50;99.90
45983;DHT22;31711;47.158;7.346;2023-09-19T06:30:18;16.50;99.90
45983;DHT22;31711;47.158;7.346;2023-09-19T06:32:44;16.40;99.90
45983;DHT22;31711;47.158;7.346;2023-09-19T06:35:11;16.40;99.90
45983;DHT22;31711;47.158;7.346;2023-09-19T06:37:38;16.30;99.90
45983;DHT22;31711;47.158;7.346;2023-09-19T06:40:09;16.20;99.90
45983;DHT22;31711;47.158;7.346;2023-09-19T06:42:51;16.40;99.90
45983;DHT22;31711;47.158;7.346;2023-09-19T06:45:18;16.40;99.90
45983;DHT22;31711;47.158;7.346;2023-09-19T06:47:45;16.50;99.90
45983;DHT22;31711;47.158;7.346;2023-09-19T06:50:11;16.50;99.90
45983;DHT22;31711;47.158;7.346;2023-09-19T06:52:41;16.60;99.90
45983;DHT22;31711;47.158;7.346;2023-09-19T06:55:07;16.80;99.90
45983;DHT22;31711;47.158;7.346;2023-09-19T06:57:35;16.90;99.90
45983;DHT22;31711;47.158;7.346;2023-09-19T07:00:02;16.80;99.90
45983;DHT22;31711;47.158;7.346;2023-09-19T07:02:28;16.70;99.90
45983;DHT22;31711;47.158;7.346;2023-09-19T07:04:54;16.70;99.90
45983;DHT22;31711;47.158;7.346;2023-09-19T07:07:20;16.70;99.90
45983;DHT22;31711;47.158;7.346;2023-09-19T07:09:46;16.70;99.90
45983;DHT22;31711;47.158;7.346;2023-09-19T07:12:14;16.90;99.90
45983;DHT22;31711;47.158;7.346;2023-09-19T07:14:40;17.00;99.90
45983;DHT22;31711;47.158;7.346;2023-09-19T07:17:06;17.20;99.90
45983;DHT22;31711;47.158;7.346;2023-09-19T07:19:32;17.20;99.90
45983;DHT22;31711;47.158;7.346;2023-09-19T07:21:58;17.10;99.90
45983;DHT22;31711;47.158;7.346;2023-09-19T07:24:25;17.10;99.90
45983;DHT22;31711;47.158;7.346;2023-09-19T07:26:54;17.20;99.90
45983;DHT22;31711;47.158;7.346;2023-09-19T07:29:20;17.10;99.90
45983;DHT22;31711;47.158;7.346;2023-09-19T07:31:46;17.20;99.90
45983;DHT22;31711;47.158;7.346;2023-09-19T07:34:13;17.40;99.90
45983;DHT22;31711;47.158;7.346;2023-09-19T07:36:39;17.60;99.90
45983;DHT22;31711;47.158;7.346;2023-09-19T07:39:07;17.80;99.90
45983;DHT22;31711;47.158;7.346;2023-09-19T07:41:33;17.60;99.90
45983;DHT22;31711;47.158;7.346;2023-09-19T07:43:59;17.40;99.90
45983;DHT22;31711;47.158;7.346;2023-09-19T07:46:25;17.40;99.90
45983;DHT22;31711;47.158;7.346;2023-09-19T07:48:52;17.40;99.90
45983;DHT22;31711;47.158;7.346;2023-09-19T07:51:18;17.50;99.90
45983;DHT22;31711;47.158;7.346;2023-09-19T07:53:44;17.70;99.90
45983;DHT22;31711;47.158;7.346;2023-09-19T07:56:10;17.80;99.90
45983;DHT22;31711;47.158;7.346;2023-09-19T07:58:39;17.70;99.90
45983;DHT22;31711;47.158;7.346;2023-09-19T08:01:08;17.80;99.90
45983;DHT22;31711;47.158;7.346;2023-09-19T08:03:34;17.90;99.90
45983;DHT22;31711;47.158;7.346;2023-09-19T08:06:03;17.90;99.90
45983;DHT22;31711;47.158;7.346;2023-09-19T08:08:30;17.90;99.90
45983;DHT22;31711;47.158;7.346;2023-09-19T08:10:56;18.10;99.90
45983;DHT22;31711;47.158;7.346;2023-09-19T08:13:25;18.30;99.90
45983;DHT22;31711;47.158;7.346;2023-09-19T08:15:52;18.30;99.90
45983;DHT22;31711;47.158;7.346;2023-09-19T08:18:21;18.50;99.90
45983;DHT22;31711;47.158;7.346;2023-09-19T08:20:52;18.70;99.90
45983;DHT22;31711;47.158;7.346;2023-09-19T08:23:18;18.80;99.90
45983;DHT22;31711;47.158;7.346;2023-09-19T08:25:46;19.10;99.90
45983;DHT22;31711;47.158;7.346;2023-09-19T08:28:13;19.30;99.90
45983;DHT22;31711;47.158;7.346;2023-09-19T08:30:45;19.30;99.90
45983;DHT22;31711;47.158;7.346;2023-09-19T08:33:11;19.60;99.90
45983;DHT22;31711;47.158;7.346;2023-09-19T08:35:38;19.90;99.90
45983;DHT22;31711;47.158;7.346;2023-09-19T08:38:05;19.90;99.90
45983;DHT22;31711;47.158;7.346;2023-09-19T08:40:32;19.70;99.90
45983;DHT22;31711;47.158;7.346;2023-09-19T08:43:01;19.60;99.90
45983;DHT22;31711;47.158;7.346;2023-09-19T08:45:27;19.90;99.90
45983;DHT22;31711;47.158;7.346;2023-09-19T08:48:02;19.60;99.90
45983;DHT22;31711;47.158;7.346;2023-09-19T08:50:33;19.90;99.90
45983;DHT22;31711;47.158;7.346;2023-09-19T08:53:14;20.30;99.90
45983;DHT22;31711;47.158;7.346;2023-09-19T08:55:41;20.40;99.90
45983;DHT22;31711;47.158;7.346;2023-09-19T08:58:10;20.60;99.90
45983;DHT22;31711;47.158;7.346;2023-09-19T09:00:36;20.80;99.90
45983;DHT22;31711;47.158;7.346;2023-09-19T09:03:03;20.40;99.90
45983;DHT22;31711;47.158;7.346;2023-09-19T09:05:32;20.50;99.90
45983;DHT22;31711;47.158;7.346;2023-09-19T09:08:00;20.20;99.90
45983;DHT22;31711;47.158;7.346;2023-09-19T09:10:28;20.60;99.90
45983;DHT22;31711;47.158;7.346;2023-09-19T09:12:54;20.90;99.90
45983;DHT22;31711;47.158;7.346;2023-09-19T09:15:22;21.10;99.90
45983;DHT22;31711;47.158;7.346;2023-09-19T09:17:52;20.90;99.90
45983;DHT22;31711;47.158;7.346;2023-09-19T09:20:21;20.90;99.90
45983;DHT22;31711;47.158;7.346;2023-09-19T09:22:54;21.10;99.90
45983;DHT22;31711;47.158;7.346;2023-09-19T09:25:21;21.40;99.90
45983;DHT22;31711;47.158;7.346;2023-09-19T09:28:00;21.40;99.90
45983;DHT22;31711;47.158;7.346;2023-09-19T09:30:34;21.30;99.90
45983;DHT22;31711;47.158;7.346;2023-09-19T09:33:11;21.00;99.90
45983;DHT22;31711;47.158;7.346;2023-09-19T09:35:48;21.10;99.90
45983;DHT22;31711;47.158;7.346;2023-09-19T09:38:22;21.40;99.90
45983;DHT22;31711;47.158;7.346;2023-09-19T09:40:53;21.50;99.90
45983;DHT22;31711;47.158;7.346;2023-09-19T09:43:30;21.50;99.90
45983;DHT22;31711;47.158;7.346;2023-09-19T09:52:03;21.90;99.90
45983;DHT22;31711;47.158;7.346;2023-09-19T09:54:35;21.70;99.90
45983;DHT22;31711;47.158;7.346;2023-09-19T09:57:10;21.80;99.90
45983;DHT22;31711;47.158;7.346;2023-09-19T09:59:59;22.10;99.90
45983;DHT22;31711;47.158;7.346;2023-09-19T10:02:42;22.10;99.90
45983;DHT22;31711;47.158;7.346;2023-09-19T10:05:18;22.10;99.90
45983;DHT22;31711;47.158;7.346;2023-09-19T10:08:10;21.90;99.90
45983;DHT22;31711;47.158;7.346;2023-09-19T10:10:39;22.00;99.90
45983;DHT22;31711;47.158;7.346;2023-09-19T10:13:10;22.00;99.90
45983;DHT22;31711;47.158;7.346;2023-09-19T10:15:44;21.70;99.90
45983;DHT22;31711;47.158;7.346;2023-09-19T10:18:26;21.80;99.90
45983;DHT22;31711;47.158;7.346;2023-09-19T10:20:53;21.90;99.90
45983;DHT22;31711;47.158;7.346;2023-09-19T10:23:21;22.00;99.90
45983;DHT22;31711;47.158;7.346;2023-09-19T10:25:49;22.00;99.90
45983;DHT22;31711;47.158;7.346;2023-09-19T10:28:17;22.10;99.90
45983;DHT22;31711;47.158;7.346;2023-09-19T10:30:49;22.40;99.90
45983;DHT22;31711;47.158;7.346;2023-09-19T10:33:17;22.40;99.90
45983;DHT22;31711;47.158;7.346;2023-09-19T10:35:47;22.40;99.90
45983;DHT22;31711;47.158;7.346;2023-09-19T10:38:17;22.50;99.90
45983;DHT22;31711;47.158;7.346;2023-09-19T10:40:44;22.10;99.90
45983;DHT22;31711;47.158;7.346;2023-09-19T10:43:16;22.10;99.90
45983;DHT22;31711;47.158;7.346;2023-09-19T10:45:48;22.10;99.90
45983;DHT22;31711;47.158;7.346;2023-09-19T10:48:19;22.40;99.90
45983;DHT22;31711;47.158;7.346;2023-09-19T10:50:50;22.30;99.90
45983;DHT22;31711;47.158;7.346;2023-09-19T10:53:18;22.50;99.90
45983;DHT22;31711;47.158;7.346;2023-09-19T10:55:53;22.60;99.90
45983;DHT22;31711;47.158;7.346;2023-09-19T10:58:29;22.00;99.90
45983;DHT22;31711;47.158;7.346;2023-09-19T11:00:58;22.10;99.90
45983;DHT22;31711;47.158;7.346;2023-09-19T11:03:38;21.90;99.90
45983;DHT22;31711;47.158;7.346;2023-09-19T11:06:15;22.00;99.90
45983;DHT22;31711;47.158;7.346;2023-09-19T11:08:52;22.10;99.90
45983;DHT22;31711;47.158;7.346;2023-09-19T11:11:44;22.00;99.90
45983;DHT22;31711;47.158;7.346;2023-09-19T11:14:38;22.10;99.90
45983;DHT22;31711;47.158;7.346;2023-09-19T11:30:45;22.70;99.90
45983;DHT22;31711;47.158;7.346;2023-09-19T11:33:28;23.00;99.90
45983;DHT22;31711;47.158;7.346;2023-09-19T11:36:08;23.20;99.90
45983;DHT22;31711;47.158;7.346;2023-09-19T11:49:18;23.20;99.90
45983;DHT22;31711;47.158;7.346;2023-09-19T11:51:52;23.10;99.90
45983;DHT22;31711;47.158;7.346;2023-09-19T11:54:18;23.30;99.90
45983;DHT22;31711;47.158;7.346;2023-09-19T11:56:53;23.30;99.90
45983;DHT22;31711;47.158;7.346;2023-09-19T11:59:20;23.30;99.90
45983;DHT22;31711;47.158;7.346;2023-09-19T12:01:54;22.80;99.90
45983;DHT22;31711;47.158;7.346;2023-09-19T12:04:43;22.90;99.90
45983;DHT22;31711;47.158;7.346;2023-09-19T12:07:12;23.30;99.90
45983;DHT22;31711;47.158;7.346;2023-09-19T12:09:46;23.60;99.90
45983;DHT22;31711;47.158;7.346;2023-09-19T12:12:20;23.50;99.90
45983;DHT22;31711;47.158;7.346;2023-09-19T12:14:50;23.60;99.90
45983;DHT22;31711;47.158;7.346;2023-09-19T12:17:17;23.70;99.90
45983;DHT22;31711;47.158;7.346;2023-09-19T12:19:56;23.80;99.90
45983;DHT22;31711;47.158;7.346;2023-09-19T12:22:22;23.70;99.90
45983;DHT22;31711;47.158;7.346;2023-09-19T12:24:48;23.30;99.90
45983;DHT22;31711;47.158;7.346;2023-09-19T12:27:16;23.30;99.90
45983;DHT22;31711;47.158;7.346;2023-09-19T12:32:10;23.40;99.90
45983;DHT22;31711;47.158;7.346;2023-09-19T12:34:36;23.60;99.90
45983;DHT22;31711;47.158;7.346;2023-09-19T12:37:08;23.20;99.90
45983;DHT22;31711;47.158;7.346;2023-09-19T12:39:49;23.20;99.90
45983;DHT22;31711;47.158;7.346;2023-09-19T12:42:21;23.40;99.90
45983;DHT22;31711;47.158;7.346;2023-09-19T12:44:52;23.60;99.90
45983;DHT22;31711;47.158;7.346;2023-09-19T12:47:23;23.90;99.90
45983;DHT22;31711;47.158;7.346;2023-09-19T12:52:47;23.80;99.90
45983;DHT22;31711;47.158;7.346;2023-09-19T12:55:21;23.30;99.90
45983;DHT22;31711;47.158;7.346;2023-09-19T13:00:38;23.20;99.90
45983;DHT22;31711;47.158;7.346;2023-09-19T13:05:56;23.50;99.90
45983;DHT22;31711;47.158;7.346;2023-09-19T13:08:26;23.70;99.90
45983;DHT22;31711;47.158;7.346;2023-09-19T13:11:03;24.00;99.90
45983;DHT22;31711;47.158;7.346;2023-09-19T13:13:33;24.20;99.90
45983;DHT22;31711;47.158;7.346;2023-09-19T13:16:02;24.10;99.90
45983;DHT22;31711;47.158;7.346;2023-09-19T13:18:28;24.00;99.90
45983;DHT22;31711;47.158;7.346;2023-09-19T13:21:08;24.00;99.90
45983;DHT22;31711;47.158;7.346;2023-09-19T13:23:51;24.00;99.90
45983;DHT22;31711;47.158;7.346;2023-09-19T13:26:18;23.00;99.90
45983;DHT22;31711;47.158;7.346;2023-09-19T13:28:45;23.50;99.90
45983;DHT22;31711;47.158;7.346;2023-09-19T13:31:11;23.80;99.90
45983;DHT22;31711;47.158;7.346;2023-09-19T13:33:43;24.00;99.90
45983;DHT22;31711;47.158;7.346;2023-09-19T13:36:11;24.10;99.90
45983;DHT22;31711;47.158;7.346;2023-09-19T13:38:42;24.00;99.90
45983;DHT22;31711;47.158;7.346;2023-09-19T13:41:14;23.70;99.90
45983;DHT22;31711;47.158;7.346;2023-09-19T13:43:40;23.80;99.90
45983;DHT22;31711;47.158;7.346;2023-09-19T13:46:06;23.80;99.90
45983;DHT22;31711;47.158;7.346;2023-09-19T13:48:40;24.00;99.90
45983;DHT22;31711;47.158;7.346;2023-09-19T13:51:06;24.10;99.90
45983;DHT22;31711;47.158;7.346;2023-09-19T13:53:32;24.20;99.90
45983;DHT22;31711;47.158;7.346;2023-09-19T13:55:58;24.20;99.90
45983;DHT22;31711;47.158;7.346;2023-09-19T13:58:24;24.30;99.90
45983;DHT22;31711;47.158;7.346;2023-09-19T14:00:50;23.90;99.90
45983;DHT22;31711;47.158;7.346;2023-09-19T14:03:17;23.90;99.90
45983;DHT22;31711;47.158;7.346;2023-09-19T14:05:43;24.00;99.90
45983;DHT22;31711;47.158;7.346;2023-09-19T14:08:09;24.00;99.90
45983;DHT22;31711;47.158;7.346;2023-09-19T14:10:35;24.20;99.90
45983;DHT22;31711;47.158;7.346;2023-09-19T14:13:01;24.20;99.90
45983;DHT22;31711;47.158;7.346;2023-09-19T14:15:27;24.10;99.90
45983;DHT22;31711;47.158;7.346;2023-09-19T14:17:57;24.20;99.90
45983;DHT22;31711;47.158;7.346;2023-09-19T14:20:24;24.10;99.90
45983;DHT22;31711;47.158;7.346;2023-09-19T14:22:53;24.20;99.90
45983;DHT22;31711;47.158;7.346;2023-09-19T14:25:19;24.00;99.90
45983;DHT22;31711;47.158;7.346;2023-09-19T14:27:47;24.00;99.90
45983;DHT22;31711;47.158;7.346;2023-09-19T14:30:13;24.00;99.90
45983;DHT22;31711;47.158;7.346;2023-09-19T14:32:39;24.20;99.90
45983;DHT22;31711;47.158;7.346;2023-09-19T14:35:07;24.30;99.90
45983;DHT22;31711;47.158;7.346;2023-09-19T14:37:33;24.30;99.90
45983;DHT22;31711;47.158;7.346;2023-09-19T14:39:59;24.30;99.90
45983;DHT22;31711;47.158;7.346;2023-09-19T14:42:25;24.00;99.90
45983;DHT22;31711;47.158;7.346;2023-09-19T14:44:51;24.10;99.90
45983;DHT22;31711;47.158;7.346;2023-09-19T14:47:17;24.10;99.90
45983;DHT22;31711;47.158;7.346;2023-09-19T14:49:43;24.20;99.90
45983;DHT22;31711;47.158;7.346;2023-09-19T14:52:11;24.30;99.90
45983;DHT22;31711;47.158;7.346;2023-09-19T14:54:38;24.40;99.90
45983;DHT22;31711;47.158;7.346;2023-09-19T14:57:07;24.50;99.90
45983;DHT22;31711;47.158;7.346;2023-09-19T14:59:34;24.20;99.90
45983;DHT22;31711;47.158;7.346;2023-09-19T15:02:04;24.30;99.90
45983;DHT22;31711;47.158;7.346;2023-09-19T15:04:30;24.00;99.90
45983;DHT22;31711;47.158;7.346;2023-09-19T15:06:56;23.90;99.90
45983;DHT22;31711;47.158;7.346;2023-09-19T15:09:23;23.80;99.90
45983;DHT22;31711;47.158;7.346;2023-09-19T15:11:52;23.80;99.90
45983;DHT22;31711;47.158;7.346;2023-09-19T15:14:19;23.80;99.90
45983;DHT22;31711;47.158;7.346;2023-09-19T15:16:45;23.70;99.90
45983;DHT22;31711;47.158;7.346;2023-09-19T15:19:11;23.70;99.90
45983;DHT22;31711;47.158;7.346;2023-09-19T15:21:37;23.70;99.90
45983;DHT22;31711;47.158;7.346;2023-09-19T15:24:03;23.50;99.90
45983;DHT22;31711;47.158;7.346;2023-09-19T15:26:30;23.40;99.90
45983;DHT22;31711;47.158;7.346;2023-09-19T15:28:56;23.30;99.90
45983;DHT22;31711;47.158;7.346;2023-09-19T15:31:22;23.30;99.90
45983;DHT22;31711;47.158;7.346;2023-09-19T15:33:48;23.20;99.90
45983;DHT22;31711;47.158;7.346;2023-09-19T15:36:15;23.00;99.90
45983;DHT22;31711;47.158;7.346;2023-09-19T15:41:19;22.80;99.90
45983;DHT22;31711;47.158;7.346;2023-09-19T15:43:46;22.80;99.90
45983;DHT22;31711;47.158;7.346;2023-09-19T15:46:12;22.60;99.90
45983;DHT22;31711;47.158;7.346;2023-09-19T15:48:39;22.50;99.90
45983;DHT22;31711;47.158;7.346;2023-09-19T15:51:05;22.40;99.90
45983;DHT22;31711;47.158;7.346;2023-09-19T15:53:45;22.30;99.90
45983;DHT22;31711;47.158;7.346;2023-09-19T15:56:12;22.30;99.90
45983;DHT22;31711;47.158;7.346;2023-09-19T15:58:44;22.30;99.90
45983;DHT22;31711;47.158;7.346;2023-09-19T16:01:10;22.20;99.90
45983;DHT22;31711;47.158;7.346;2023-09-19T16:03:43;22.20;99.90
45983;DHT22;31711;47.158;7.346;2023-09-19T16:06:17;22.10;99.90
45983;DHT22;31711;47.158;7.346;2023-09-19T16:08:46;22.10;99.90
45983;DHT22;31711;47.158;7.346;2023-09-19T16:11:15;22.00;99.90
45983;DHT22;31711;47.158;7.346;2023-09-19T16:13:42;21.90;99.90
45983;DHT22;31711;47.158;7.346;2023-09-19T16:16:10;21.80;99.90
45983;DHT22;31711;47.158;7.346;2023-09-19T16:18:44;21.80;99.90
45983;DHT22;31711;47.158;7.346;2023-09-19T16:21:10;21.80;99.90
45983;DHT22;31711;47.158;7.346;2023-09-19T16:23:37;21.70;99.90
45983;DHT22;31711;47.158;7.346;2023-09-19T16:26:05;21.60;99.90
45983;DHT22;31711;47.158;7.346;2023-09-19T16:28:38;21.60;99.90
45983;DHT22;31711;47.158;7.346;2023-09-19T16:31:06;21.50;99.90
45983;DHT22;31711;47.158;7.346;2023-09-19T16:33:33;21.50;99.90
45983;DHT22;31711;47.158;7.346;2023-09-19T16:36:00;21.50;99.90
45983;DHT22;31711;47.158;7.346;2023-09-19T16:38:27;21.40;99.90
45983;DHT22;31711;47.158;7.346;2023-09-19T16:40:54;21.40;99.90
45983;DHT22;31711;47.158;7.346;2023-09-19T16:43:23;21.40;99.90